Time;durP1;ratioP1;P1;durP2;ratioP2;P2;SDS_P1;SDS_P2;PMS_P1;PMS_P2;Temp;Humidity;BMP_temperature;BMP_pressure;BME280_temperature;BME280_humidity;BME280_pressure;Samples;Min_cycle;Max_cycle;Signal;HPM_P1;HPM_P2
2022/03/25 00:01:31;;;;;;;;;;;5.00;99.90;;;;;;2174075;65;20069;-74
2022/03/25 00:04:13;;;;;;;;;;;5.10;99.90;;;;;;2182605;65;20114;-74
2022/03/25 00:06:59;;;;;;;;;;;5.00;99.90;;;;;;2169153;66;20260;-74
2022/03/25 00:09:41;;;;;;;;;;;5.00;99.90;;;;;;2169297;66;20052;-74
2022/03/25 00:12:22;;;;;;;;;;;5.00;99.90;;;;;;2154682;66;20655;-74
2022/03/25 00:15:04;;;;;;;;;;;5.00;99.90;;;;;;2147420;66;20157;-74
2022/03/25 00:17:45;;;;;;;;;;;5.00;99.90;;;;;;2147709;66;20203;-74
2022/03/25 00:20:27;;;;;;;;;;;4.90;99.90;;;;;;2142037;66;20180;-76
2022/03/25 00:23:10;;;;;;;;;;;4.90;99.90;;;;;;2155586;66;20192;-74
2022/03/25 00:25:55;;;;;;;;;;;4.90;99.90;;;;;;2163213;66;20065;-74
2022/03/25 00:28:57;;;;;;;;;;;4.90;99.90;;;;;;2169929;65;20712;-73
2022/03/25 00:31:39;;;;;;;;;;;4.90;99.90;;;;;;2169590;66;20132;-74
2022/03/25 00:34:21;;;;;;;;;;;4.80;99.90;;;;;;2152924;66;20203;-74
2022/03/25 00:37:06;;;;;;;;;;;4.80;99.90;;;;;;2130236;66;20093;-73
2022/03/25 00:39:50;;;;;;;;;;;4.80;99.90;;;;;;2139811;66;20160;-74
2022/03/25 00:42:33;;;;;;;;;;;4.70;99.90;;;;;;2141437;66;20210;-73
2022/03/25 00:45:17;;;;;;;;;;;4.90;99.90;;;;;;2151040;66;20045;-74
2022/03/25 00:47:59;;;;;;;;;;;4.70;99.90;;;;;;2156764;66;20110;-73
2022/03/25 00:50:41;;;;;;;;;;;4.70;99.90;;;;;;2159673;66;20118;-74
2022/03/25 00:53:28;;;;;;;;;;;4.60;99.90;;;;;;2150488;66;20529;-74
2022/03/25 00:56:13;;;;;;;;;;;4.60;99.90;;;;;;2163049;66;20107;-74
2022/03/25 00:58:57;;;;;;;;;;;4.60;99.90;;;;;;2162842;66;20279;-74
2022/03/25 01:01:39;;;;;;;;;;;4.60;99.90;;;;;;2158574;66;20134;-74
2022/03/25 01:04:21;;;;;;;;;;;4.50;99.90;;;;;;2163684;66;20037;-73
2022/03/25 01:07:03;;;;;;;;;;;4.50;99.90;;;;;;2161876;66;20236;-73
2022/03/25 01:09:45;;;;;;;;;;;4.50;99.90;;;;;;2162350;66;20069;-74
2022/03/25 01:12:29;;;;;;;;;;;4.50;99.90;;;;;;2163056;66;20078;-74
2022/03/25 01:15:11;;;;;;;;;;;4.40;99.90;;;;;;2175665;65;20059;-73
2022/03/25 01:17:52;;;;;;;;;;;4.40;99.90;;;;;;2175056;65;20222;-74
2022/03/25 01:20:34;;;;;;;;;;;4.50;99.90;;;;;;2157514;66;20045;-73
2022/03/25 01:23:17;;;;;;;;;;;4.40;99.90;;;;;;2154852;66;20289;-73
2022/03/25 01:26:04;;;;;;;;;;;4.40;99.90;;;;;;2157926;66;20073;-74
2022/03/25 01:28:45;;;;;;;;;;;4.40;99.90;;;;;;2158873;66;20045;-75
2022/03/25 01:31:30;;;;;;;;;;;4.40;99.90;;;;;;2173220;65;20056;-73
2022/03/25 01:34:11;;;;;;;;;;;4.40;99.90;;;;;;2186973;65;20617;-74
2022/03/25 01:36:52;;;;;;;;;;;4.30;99.90;;;;;;2176514;65;20214;-73
2022/03/25 01:39:33;;;;;;;;;;;4.30;99.90;;;;;;2169111;66;20198;-74
2022/03/25 01:42:15;;;;;;;;;;;4.30;99.90;;;;;;2156792;66;20057;-75
2022/03/25 01:44:57;;;;;;;;;;;4.30;99.90;;;;;;2166339;65;20176;-73
2022/03/25 01:47:40;;;;;;;;;;;4.30;99.90;;;;;;2168808;66;20646;-74
2022/03/25 01:50:23;;;;;;;;;;;4.70;99.90;;;;;;2169162;65;20048;-74
2022/03/25 01:53:26;;;;;;;;;;;4.20;99.90;;;;;;2183758;65;20575;-73
2022/03/25 01:56:10;;;;;;;;;;;4.10;99.90;;;;;;2193258;65;20135;-75
2022/03/25 01:58:52;;;;;;;;;;;4.10;99.90;;;;;;2197006;65;20096;-74
2022/03/25 02:01:34;;;;;;;;;;;4.10;99.90;;;;;;2174999;65;20043;-73
2022/03/25 02:04:19;;;;;;;;;;;4.10;99.90;;;;;;2169322;65;20213;-73
2022/03/25 02:07:03;;;;;;;;;;;4.20;99.90;;;;;;2169842;65;21301;-74
2022/03/25 02:09:45;;;;;;;;;;;4.10;99.90;;;;;;2160574;66;20069;-74
2022/03/25 02:12:30;;;;;;;;;;;4.00;99.90;;;;;;2174631;65;20185;-74
2022/03/25 02:15:12;;;;;;;;;;;4.00;99.90;;;;;;2175225;65;20448;-74
2022/03/25 02:17:53;;;;;;;;;;;4.00;99.90;;;;;;2159261;66;20091;-73
2022/03/25 02:20:35;;;;;;;;;;;4.00;99.90;;;;;;1927718;66;15794753;-74
2022/03/25 02:23:16;;;;;;;;;;;4.00;99.90;;;;;;2163249;65;20050;-74
2022/03/25 02:26:01;;;;;;;;;;;3.90;99.90;;;;;;2174876;65;20163;-73
2022/03/25 02:28:43;;;;;;;;;;;4.00;99.90;;;;;;2167553;65;20668;-73
2022/03/25 02:31:26;;;;;;;;;;;3.90;99.90;;;;;;2182381;65;20131;-73
2022/03/25 02:34:11;;;;;;;;;;;3.90;99.90;;;;;;2192575;65;20114;-74
2022/03/25 02:36:54;;;;;;;;;;;3.80;99.90;;;;;;2184807;65;20152;-73
2022/03/25 02:39:40;;;;;;;;;;;3.80;99.90;;;;;;2182526;65;20175;-73
2022/03/25 02:42:24;;;;;;;;;;;3.80;99.90;;;;;;2161325;66;20215;-73
2022/03/25 02:45:10;;;;;;;;;;;3.80;99.90;;;;;;2161171;66;20110;-74
2022/03/25 02:47:54;;;;;;;;;;;3.80;99.90;;;;;;2153828;66;20053;-73
2022/03/25 02:50:36;;;;;;;;;;;3.90;99.90;;;;;;2146359;66;20255;-74
2022/03/25 02:53:18;;;;;;;;;;;3.90;99.90;;;;;;2145723;66;20198;-73
2022/03/25 02:56:02;;;;;;;;;;;3.90;99.90;;;;;;2141089;66;20577;-74
2022/03/25 02:58:46;;;;;;;;;;;3.90;99.90;;;;;;2139148;67;20596;-74
2022/03/25 03:01:28;;;;;;;;;;;3.90;99.90;;;;;;2145741;66;20203;-74
2022/03/25 03:04:11;;;;;;;;;;;3.80;99.90;;;;;;2145673;66;20699;-73
2022/03/25 03:06:55;;;;;;;;;;;3.80;99.90;;;;;;2146980;66;20554;-73
2022/03/25 03:09:40;;;;;;;;;;;3.80;99.90;;;;;;2152106;66;20194;-73
2022/03/25 03:12:22;;;;;;;;;;;3.80;99.90;;;;;;2151076;66;20226;-72
2022/03/25 03:15:06;;;;;;;;;;;3.70;99.90;;;;;;2151092;66;20153;-74
2022/03/25 03:17:50;;;;;;;;;;;3.70;99.90;;;;;;2159355;65;20189;-73
2022/03/25 03:20:32;;;;;;;;;;;3.70;99.90;;;;;;2175395;65;20074;-74
2022/03/25 03:23:13;;;;;;;;;;;3.70;99.90;;;;;;2175869;65;20100;-74
2022/03/25 03:25:55;;;;;;;;;;;3.60;99.90;;;;;;2170261;65;20056;-73
2022/03/25 03:28:36;;;;;;;;;;;3.60;99.90;;;;;;2171686;65;20124;-73
2022/03/25 03:31:18;;;;;;;;;;;3.50;99.90;;;;;;2177915;65;20285;-73
2022/03/25 03:33:59;;;;;;;;;;;3.50;99.90;;;;;;2156946;66;20326;-73
2022/03/25 03:36:41;;;;;;;;;;;3.50;99.90;;;;;;2148040;66;20502;-73
2022/03/25 03:39:23;;;;;;;;;;;3.40;99.90;;;;;;2154207;66;20091;-73
2022/03/25 03:42:08;;;;;;;;;;;3.40;99.90;;;;;;2168403;65;20210;-73
2022/03/25 03:44:50;;;;;;;;;;;3.30;99.90;;;;;;2160337;66;20164;-73
2022/03/25 03:47:31;;;;;;;;;;;3.30;99.90;;;;;;2147382;66;20054;-73
2022/03/25 03:50:17;;;;;;;;;;;3.30;99.90;;;;;;2147370;66;20668;-73
2022/03/25 03:53:15;;;;;;;;;;;3.20;99.90;;;;;;2154805;66;20079;-73
2022/03/25 03:55:57;;;;;;;;;;;3.20;99.90;;;;;;2147019;66;20380;-73
2022/03/25 03:58:40;;;;;;;;;;;3.20;99.90;;;;;;2145392;66;20121;-73
2022/03/25 04:01:24;;;;;;;;;;;3.10;99.90;;;;;;2147188;66;20058;-74
2022/03/25 04:04:05;;;;;;;;;;;3.10;99.90;;;;;;2169265;66;20168;-73
2022/03/25 04:06:48;;;;;;;;;;;3.10;99.90;;;;;;2169072;65;20116;-73
2022/03/25 04:09:33;;;;;;;;;;;3.00;99.90;;;;;;2152846;66;20112;-73
2022/03/25 04:12:17;;;;;;;;;;;3.10;99.90;;;;;;2154496;66;20179;-73
2022/03/25 04:14:59;;;;;;;;;;;3.00;99.90;;;;;;2146773;66;20062;-74
2022/03/25 04:17:41;;;;;;;;;;;3.00;99.90;;;;;;2144196;66;20078;-73
2022/03/25 04:20:23;;;;;;;;;;;3.00;99.90;;;;;;2145938;66;20595;-73
2022/03/25 04:23:05;;;;;;;;;;;3.00;99.90;;;;;;2147238;66;20046;-74
2022/03/25 04:25:47;;;;;;;;;;;3.00;99.90;;;;;;2154670;66;20121;-75
2022/03/25 04:28:29;;;;;;;;;;;2.90;99.90;;;;;;2175651;65;20093;-74
2022/03/25 04:31:10;;;;;;;;;;;2.90;99.90;;;;;;2162044;66;20074;-73
2022/03/25 04:33:52;;;;;;;;;;;2.90;99.90;;;;;;2161809;66;20069;-74
2022/03/25 04:36:36;;;;;;;;;;;3.00;99.90;;;;;;2163968;66;20057;-74
2022/03/25 04:39:18;;;;;;;;;;;2.90;99.90;;;;;;2169375;66;20123;-74
2022/03/25 04:42:00;;;;;;;;;;;2.80;99.90;;;;;;2169292;66;20060;-73
2022/03/25 04:44:42;;;;;;;;;;;2.80;99.90;;;;;;2155440;66;20250;-74
2022/03/25 04:47:26;;;;;;;;;;;2.70;99.90;;;;;;2151948;66;20515;-73
2022/03/25 04:50:11;;;;;;;;;;;2.70;99.90;;;;;;2172936;65;20143;-74
2022/03/25 04:52:53;;;;;;;;;;;2.70;99.90;;;;;;2159675;66;20121;-74
2022/03/25 04:55:35;;;;;;;;;;;2.70;99.90;;;;;;2168276;65;20744;-74
2022/03/25 04:58:16;;;;;;;;;;;2.60;99.90;;;;;;2169301;65;20086;-73
2022/03/25 05:01:01;;;;;;;;;;;2.60;99.90;;;;;;2169238;66;20110;-73
2022/03/25 05:03:46;;;;;;;;;;;2.60;99.90;;;;;;2149435;66;20245;-73
2022/03/25 05:06:27;;;;;;;;;;;2.60;99.90;;;;;;2153104;66;20230;-74
2022/03/25 05:09:10;;;;;;;;;;;2.60;99.90;;;;;;2141083;66;20178;-74
2022/03/25 05:11:52;;;;;;;;;;;2.60;99.90;;;;;;2142246;66;20047;-74
2022/03/25 05:14:34;;;;;;;;;;;2.60;99.90;;;;;;2162120;66;20296;-74
2022/03/25 05:17:19;;;;;;;;;;;2.60;99.90;;;;;;2171902;65;20043;-74
2022/03/25 05:20:08;;;;;;;;;;;2.70;99.90;;;;;;2169142;66;20069;-72
2022/03/25 05:22:50;;;;;;;;;;;2.70;99.90;;;;;;2169033;66;20060;-72
2022/03/25 05:25:34;;;;;;;;;;;2.70;99.90;;;;;;2175918;65;20205;-74
2022/03/25 05:28:22;;;;;;;;;;;2.80;99.90;;;;;;2149508;66;20050;-74
2022/03/25 05:31:03;;;;;;;;;;;2.80;99.90;;;;;;2148896;66;20577;-73
2022/03/25 05:33:46;;;;;;;;;;;2.80;99.90;;;;;;2161449;66;20053;-72
2022/03/25 05:36:33;;;;;;;;;;;2.80;99.90;;;;;;2145940;66;20080;-73
2022/03/25 05:39:17;;;;;;;;;;;2.80;99.90;;;;;;2148144;66;20200;-73
2022/03/25 05:41:58;;;;;;;;;;;2.80;99.90;;;;;;2141818;66;20138;-74
2022/03/25 05:44:40;;;;;;;;;;;2.80;99.90;;;;;;2150134;66;20387;-74
2022/03/25 05:47:22;;;;;;;;;;;2.80;99.90;;;;;;2153026;66;20050;-72
2022/03/25 05:50:04;;;;;;;;;;;2.80;99.90;;;;;;2159132;66;20139;-73
2022/03/25 05:52:46;;;;;;;;;;;2.90;99.90;;;;;;2139851;67;20257;-74
2022/03/25 05:55:28;;;;;;;;;;;2.90;99.90;;;;;;2140018;66;20106;-74
2022/03/25 05:58:10;;;;;;;;;;;3.00;99.90;;;;;;2136395;67;20088;-73
2022/03/25 06:00:52;;;;;;;;;;;3.00;99.90;;;;;;2134615;67;20646;-73
2022/03/25 06:03:38;;;;;;;;;;;3.10;99.90;;;;;;2122702;67;20079;-73
2022/03/25 06:06:22;;;;;;;;;;;3.20;99.90;;;;;;2147074;66;20130;-74
2022/03/25 06:09:04;;;;;;;;;;;3.30;99.90;;;;;;2139625;66;20241;-73
2022/03/25 06:11:46;;;;;;;;;;;3.30;99.90;;;;;;2139856;67;20078;-74
2022/03/25 06:14:27;;;;;;;;;;;3.40;99.90;;;;;;2139702;67;20180;-72
2022/03/25 06:17:09;;;;;;;;;;;3.50;99.90;;;;;;2139707;67;20063;-74
2022/03/25 06:19:50;;;;;;;;;;;3.90;99.90;;;;;;2146704;66;20071;-74
2022/03/25 06:22:33;;;;;;;;;;;3.60;99.90;;;;;;2144824;66;20145;-75
2022/03/25 06:25:20;;;;;;;;;;;3.70;99.90;;;;;;2140474;67;20127;-75
2022/03/25 06:28:07;;;;;;;;;;;3.70;99.90;;;;;;2147830;66;20211;-74
2022/03/25 06:30:52;;;;;;;;;;;3.80;99.90;;;;;;2171381;65;20583;-72
2022/03/25 06:33:39;;;;;;;;;;;3.90;99.90;;;;;;2177889;65;20068;-74
2022/03/25 06:36:20;;;;;;;;;;;3.90;99.90;;;;;;2168974;66;20064;-75
2022/03/25 06:39:02;;;;;;;;;;;3.90;99.90;;;;;;2169587;66;20068;-74
2022/03/25 06:41:45;;;;;;;;;;;4.00;99.90;;;;;;2151336;66;20628;-75
2022/03/25 06:44:28;;;;;;;;;;;4.10;99.90;;;;;;2158055;66;20097;-74
2022/03/25 06:47:14;;;;;;;;;;;4.20;99.90;;;;;;2151706;66;20097;-74
2022/03/25 06:49:56;;;;;;;;;;;4.30;99.90;;;;;;2162175;66;20201;-74
2022/03/25 06:53:01;;;;;;;;;;;4.40;99.90;;;;;;2164370;66;20213;-74
2022/03/25 06:55:48;;;;;;;;;;;4.50;99.90;;;;;;2169019;66;20516;-78
2022/03/25 06:58:36;;;;;;;;;;;4.60;99.90;;;;;;2161797;66;20176;-74
2022/03/25 07:01:20;;;;;;;;;;;4.70;99.90;;;;;;2165277;66;20571;-74
2022/03/25 07:04:04;;;;;;;;;;;4.80;99.90;;;;;;2166547;66;20216;-74
2022/03/25 07:06:48;;;;;;;;;;;4.80;99.90;;;;;;2166701;66;20215;-74
2022/03/25 07:09:32;;;;;;;;;;;5.00;99.90;;;;;;2158408;66;20050;-74
2022/03/25 07:12:16;;;;;;;;;;;5.00;99.90;;;;;;2162175;66;20223;-73
2022/03/25 07:14:59;;;;;;;;;;;5.20;99.90;;;;;;2162568;65;20461;-75
2022/03/25 07:17:45;;;;;;;;;;;5.30;99.90;;;;;;2164525;66;20117;-74
2022/03/25 07:20:27;;;;;;;;;;;5.50;99.90;;;;;;2171952;65;20234;-74
2022/03/25 07:23:09;;;;;;;;;;;5.50;99.90;;;;;;2162183;66;20249;-75
2022/03/25 07:25:51;;;;;;;;;;;5.60;99.90;;;;;;2181710;65;20127;-73
2022/03/25 07:28:36;;;;;;;;;;;5.60;99.90;;;;;;2165928;65;20065;-74
2022/03/25 07:31:20;;;;;;;;;;;5.70;99.90;;;;;;2169604;65;20060;-72
2022/03/25 07:34:02;;;;;;;;;;;5.70;99.90;;;;;;2162806;66;20316;-75
2022/03/25 07:36:43;;;;;;;;;;;5.80;99.90;;;;;;2159002;66;20108;-75
2022/03/25 07:39:25;;;;;;;;;;;5.90;99.90;;;;;;2154993;66;20530;-75
2022/03/25 07:42:08;;;;;;;;;;;6.00;99.90;;;;;;2151333;66;20191;-74
2022/03/25 07:44:49;;;;;;;;;;;6.10;99.90;;;;;;2155974;66;20074;-75
2022/03/25 07:47:35;;;;;;;;;;;6.20;99.90;;;;;;2157563;66;20535;-76
2022/03/25 07:50:18;;;;;;;;;;;6.30;99.90;;;;;;2147415;66;20218;-77
2022/03/25 07:53:02;;;;;;;;;;;6.40;99.90;;;;;;2163976;66;20069;-73
2022/03/25 07:55:47;;;;;;;;;;;6.50;99.90;;;;;;2157259;66;20277;-75
2022/03/25 07:58:29;;;;;;;;;;;6.60;99.90;;;;;;2156834;66;20053;-74
2022/03/25 08:01:13;;;;;;;;;;;6.70;99.90;;;;;;2150743;66;20109;-75
2022/03/25 08:03:58;;;;;;;;;;;6.80;99.90;;;;;;2159847;66;20188;-75
2022/03/25 08:06:41;;;;;;;;;;;6.90;99.90;;;;;;2149837;66;20625;-74
2022/03/25 08:09:23;;;;;;;;;;;7.10;99.90;;;;;;2151794;66;20154;-74
2022/03/25 08:12:05;;;;;;;;;;;7.20;99.90;;;;;;2152781;66;20593;-76
2022/03/25 08:14:47;;;;;;;;;;;7.30;99.90;;;;;;2132044;67;20208;-75
2022/03/25 08:17:30;;;;;;;;;;;7.40;99.90;;;;;;2137469;66;20088;-76
2022/03/25 08:20:19;;;;;;;;;;;7.50;99.90;;;;;;2155941;66;20172;-80
2022/03/25 08:23:01;;;;;;;;;;;7.60;99.90;;;;;;2159339;66;20052;-81
2022/03/25 08:28:42;;;;;;;;;;;7.80;99.90;;;;;;2158064;66;20094;-79
2022/03/25 08:31:24;;;;;;;;;;;7.80;99.90;;;;;;2153302;66;20203;-80
2022/03/25 08:34:14;;;;;;;;;;;7.90;99.90;;;;;;2143141;66;20058;-78
2022/03/25 08:37:08;;;;;;;;;;;8.00;99.90;;;;;;2142772;66;20246;-78
2022/03/25 08:39:51;;;;;;;;;;;8.20;99.90;;;;;;2152480;66;20990;-76
2022/03/25 08:42:35;;;;;;;;;;;8.20;99.90;;;;;;2129307;67;20089;-75
2022/03/25 08:45:17;;;;;;;;;;;8.30;99.90;;;;;;2117303;67;20459;-75
2022/03/25 08:47:58;;;;;;;;;;;8.40;99.90;;;;;;2127993;67;20176;-74
2022/03/25 08:50:40;;;;;;;;;;;8.50;99.90;;;;;;2127189;67;20160;-76
2022/03/25 08:53:21;;;;;;;;;;;8.60;99.90;;;;;;2143966;66;20159;-78
2022/03/25 08:56:04;;;;;;;;;;;8.70;99.90;;;;;;2134956;67;20634;-77
2022/03/25 08:58:54;;;;;;;;;;;8.70;99.90;;;;;;2123476;67;20064;-73
2022/03/25 09:01:35;;;;;;;;;;;8.80;99.90;;;;;;2132516;67;20236;-76
2022/03/25 09:04:18;;;;;;;;;;;8.90;99.90;;;;;;2140432;66;20074;-80
2022/03/25 09:07:02;;;;;;;;;;;8.90;99.90;;;;;;2135731;67;20134;-81
2022/03/25 09:09:47;;;;;;;;;;;9.10;99.90;;;;;;2121681;67;20124;-78
2022/03/25 09:12:29;;;;;;;;;;;9.20;99.90;;;;;;2128961;67;20214;-78
2022/03/25 09:15:14;;;;;;;;;;;9.30;99.90;;;;;;2128926;67;20216;-78
2022/03/25 09:17:56;;;;;;;;;;;9.40;99.90;;;;;;2133266;67;20118;-78
2022/03/25 09:20:41;;;;;;;;;;;9.40;99.90;;;;;;2140227;66;20133;-77
2022/03/25 09:23:27;;;;;;;;;;;9.60;99.90;;;;;;2153943;66;20452;-78
2022/03/25 09:26:16;;;;;;;;;;;9.70;99.90;;;;;;2154076;66;20107;-76
2022/03/25 09:29:00;;;;;;;;;;;9.80;99.90;;;;;;2146469;66;20159;-78
2022/03/25 09:31:44;;;;;;;;;;;10.00;99.90;;;;;;2151198;66;20461;-78
2022/03/25 09:37:26;;;;;;;;;;;10.20;99.90;;;;;;2139155;66;20195;-78
2022/03/25 09:40:09;;;;;;;;;;;10.40;97.60;;;;;;2124361;67;20202;-78
2022/03/25 09:42:55;;;;;;;;;;;10.50;98.20;;;;;;2126767;67;20595;-78
2022/03/25 09:45:36;;;;;;;;;;;10.70;98.60;;;;;;2137741;66;20513;-74
2022/03/25 09:48:18;;;;;;;;;;;10.80;99.50;;;;;;2134698;66;20312;-75
2022/03/25 09:51:00;;;;;;;;;;;10.90;97.80;;;;;;2145046;66;20055;-76
2022/03/25 09:53:43;;;;;;;;;;;11.00;97.00;;;;;;2146376;66;20062;-74
2022/03/25 09:56:28;;;;;;;;;;;11.10;98.40;;;;;;2147480;66;20563;-76
2022/03/25 09:59:10;;;;;;;;;;;11.20;98.60;;;;;;2153636;66;20126;-75
2022/03/25 10:01:54;;;;;;;;;;;11.30;97.00;;;;;;2152896;66;20259;-76
2022/03/25 10:04:43;;;;;;;;;;;11.50;98.00;;;;;;2131997;67;20097;-75
2022/03/25 10:07:30;;;;;;;;;;;11.60;95.20;;;;;;2159188;66;20589;-76
2022/03/25 10:10:22;;;;;;;;;;;11.70;95.10;;;;;;2174469;65;20052;-76
2022/03/25 10:13:08;;;;;;;;;;;11.90;96.40;;;;;;2168494;66;20108;-76
2022/03/25 10:15:49;;;;;;;;;;;12.00;96.00;;;;;;2161786;66;20104;-76
2022/03/25 10:18:31;;;;;;;;;;;12.10;95.20;;;;;;2160049;66;20135;-77
2022/03/25 10:21:15;;;;;;;;;;;12.20;93.50;;;;;;2152311;66;20070;-76
2022/03/25 10:23:57;;;;;;;;;;;12.20;95.80;;;;;;2163979;66;20428;-76
2022/03/25 10:26:38;;;;;;;;;;;12.40;94.80;;;;;;2159956;66;20128;-75
2022/03/25 10:29:23;;;;;;;;;;;12.50;94.80;;;;;;2169546;65;20198;-76
2022/03/25 10:32:25;;;;;;;;;;;12.70;94.70;;;;;;2156256;66;20157;-76
2022/03/25 10:35:10;;;;;;;;;;;12.80;94.30;;;;;;2151565;66;20292;-75
2022/03/25 10:37:58;;;;;;;;;;;12.90;92.70;;;;;;2136197;67;20402;-78
2022/03/25 10:40:54;;;;;;;;;;;13.10;92.90;;;;;;2138656;66;20214;-80
2022/03/25 10:44:08;;;;;;;;;;;13.40;93.40;;;;;;2147282;66;20625;-80
2022/03/25 10:46:53;;;;;;;;;;;13.70;91.10;;;;;;2158498;66;20279;-80
2022/03/25 10:49:43;;;;;;;;;;;14.10;92.70;;;;;;2166717;66;20621;-82
2022/03/25 10:52:30;;;;;;;;;;;14.40;92.60;;;;;;2183522;65;20141;-82
2022/03/25 10:55:14;;;;;;;;;;;14.80;93.00;;;;;;2175460;65;20120;-83
2022/03/25 10:57:58;;;;;;;;;;;15.10;95.20;;;;;;2157294;66;20289;-82
2022/03/25 11:00:40;;;;;;;;;;;15.50;93.20;;;;;;2147213;66;20681;-79
2022/03/25 11:03:23;;;;;;;;;;;15.90;92.70;;;;;;2144024;66;20725;-79
2022/03/25 11:06:08;;;;;;;;;;;16.20;93.30;;;;;;2133821;67;20300;-78
2022/03/25 11:08:54;;;;;;;;;;;16.60;92.30;;;;;;2135944;67;20601;-80
2022/03/25 11:11:37;;;;;;;;;;;17.00;93.00;;;;;;2140467;67;20301;-79
2022/03/25 11:14:21;;;;;;;;;;;17.50;89.30;;;;;;2139327;66;20075;-78
2022/03/25 11:17:20;;;;;;;;;;;18.00;75.40;;;;;;2136779;66;20601;-79
2022/03/25 11:20:02;;;;;;;;;;;18.60;70.60;;;;;;2123235;67;20196;-76
2022/03/25 11:22:49;;;;;;;;;;;19.00;73.80;;;;;;2127804;66;20249;-77
2022/03/25 11:25:31;;;;;;;;;;;19.40;76.30;;;;;;2156002;66;20101;-75
2022/03/25 11:28:17;;;;;;;;;;;19.80;68.80;;;;;;2161929;65;20219;-80
2022/03/25 11:30:59;;;;;;;;;;;20.20;69.90;;;;;;2174986;65;20245;-82
2022/03/25 11:33:59;;;;;;;;;;;20.70;67.10;;;;;;2171006;65;20224;-78
2022/03/25 11:36:42;;;;;;;;;;;21.00;65.00;;;;;;2157149;66;20194;-82
2022/03/25 11:39:31;;;;;;;;;;;21.60;63.00;;;;;;2157500;66;20116;-79
2022/03/25 11:42:39;;;;;;;;;;;22.20;60.90;;;;;;2161087;66;20262;-77
2022/03/25 11:45:32;;;;;;;;;;;22.70;59.40;;;;;;2160739;66;20314;-77
2022/03/25 11:48:13;;;;;;;;;;;23.20;56.50;;;;;;2170064;65;20197;-77
2022/03/25 11:50:55;;;;;;;;;;;23.70;53.50;;;;;;2158088;66;20132;-79
2022/03/25 11:53:40;;;;;;;;;;;24.00;48.80;;;;;;2159606;66;20331;-79
2022/03/25 11:56:25;;;;;;;;;;;24.30;50.00;;;;;;2179014;65;20143;-77
2022/03/25 11:59:08;;;;;;;;;;;24.40;50.10;;;;;;2163310;66;20117;-77
2022/03/25 12:01:51;;;;;;;;;;;24.60;49.40;;;;;;2166851;65;20604;-77
2022/03/25 12:04:35;;;;;;;;;;;24.70;47.00;;;;;;2153611;66;20216;-76
2022/03/25 12:07:16;;;;;;;;;;;24.90;43.00;;;;;;2144619;66;20173;-77
2022/03/25 12:09:59;;;;;;;;;;;25.10;42.00;;;;;;2140176;67;20095;-78
2022/03/25 12:12:54;;;;;;;;;;;25.30;44.80;;;;;;2139094;67;20087;-77
2022/03/25 12:16:04;;;;;;;;;;;25.50;44.00;;;;;;2142719;66;20078;-77
2022/03/25 12:18:47;;;;;;;;;;;25.80;40.10;;;;;;2150901;66;20148;-78
2022/03/25 12:21:28;;;;;;;;;;;26.10;41.40;;;;;;2147647;66;20589;-80
2022/03/25 12:24:13;;;;;;;;;;;26.40;41.40;;;;;;2153844;66;20046;-76
2022/03/25 12:26:55;;;;;;;;;;;26.70;38.70;;;;;;2142265;66;20692;-78
2022/03/25 12:29:35;;;;;;;;;;;27.10;40.00;;;;;;2152272;66;20061;-78
2022/03/25 12:32:17;;;;;;;;;;;27.50;40.30;;;;;;2159870;66;20985;-78
2022/03/25 12:35:01;;;;;;;;;;;27.80;40.30;;;;;;2157893;66;20168;-79
2022/03/25 12:37:42;;;;;;;;;;;28.40;38.20;;;;;;2167143;66;20057;-78
2022/03/25 12:40:25;;;;;;;;;;;28.70;39.40;;;;;;2176663;65;20099;-79
2022/03/25 12:43:11;;;;;;;;;;;28.90;38.40;;;;;;2185222;65;20135;-80
2022/03/25 12:46:11;;;;;;;;;;;29.00;38.90;;;;;;2184765;65;20063;-79
2022/03/25 12:49:01;;;;;;;;;;;29.10;37.20;;;;;;2182894;65;20150;-78
2022/03/25 12:51:55;;;;;;;;;;;29.20;37.70;;;;;;2163745;66;20180;-77
2022/03/25 12:54:37;;;;;;;;;;;29.60;37.40;;;;;;2161224;66;20757;-78
2022/03/25 12:57:31;;;;;;;;;;;30.00;36.10;;;;;;2166551;65;20272;-78
2022/03/25 13:00:13;;;;;;;;;;;30.40;36.00;;;;;;2177166;65;20217;-76
2022/03/25 13:02:56;;;;;;;;;;;30.80;34.50;;;;;;2164022;65;21002;-76
2022/03/25 13:05:40;;;;;;;;;;;31.00;34.30;;;;;;2160581;66;20069;-76
2022/03/25 13:08:23;;;;;;;;;;;31.00;33.30;;;;;;2155368;65;20188;-78
2022/03/25 13:11:04;;;;;;;;;;;31.20;33.80;;;;;;2172997;65;20055;-77
2022/03/25 13:13:47;;;;;;;;;;;31.70;31.50;;;;;;2181046;65;20212;-78
2022/03/25 13:16:29;;;;;;;;;;;32.10;32.90;;;;;;2170756;65;20196;-77
2022/03/25 13:19:11;;;;;;;;;;;32.70;33.10;;;;;;2183567;65;20735;-77
2022/03/25 13:21:55;;;;;;;;;;;33.30;31.30;;;;;;2178741;65;20066;-76
2022/03/25 13:25:08;;;;;;;;;;;33.40;30.20;;;;;;2160332;66;20660;-75
2022/03/25 13:27:49;;;;;;;;;;;33.50;30.70;;;;;;2166259;66;20103;-76
2022/03/25 13:30:31;;;;;;;;;;;33.50;30.50;;;;;;2172473;65;20069;-75
2022/03/25 13:33:14;;;;;;;;;;;33.40;30.00;;;;;;2161436;66;20322;-75
2022/03/25 13:35:58;;;;;;;;;;;33.60;30.20;;;;;;2175956;65;20132;-76
2022/03/25 13:38:54;;;;;;;;;;;34.10;30.50;;;;;;2175680;65;20126;-75
2022/03/25 13:41:35;;;;;;;;;;;34.60;30.00;;;;;;2172719;65;20081;-77
2022/03/25 13:44:17;;;;;;;;;;;35.00;29.70;;;;;;2162854;65;20142;-75
2022/03/25 13:47:14;;;;;;;;;;;35.10;28.60;;;;;;2145418;66;20078;-76
2022/03/25 13:50:32;;;;;;;;;;;35.10;28.60;;;;;;2150474;66;20073;-76
2022/03/25 13:53:20;;;;;;;;;;;35.10;28.50;;;;;;2143832;66;20212;-76
2022/03/25 13:56:13;;;;;;;;;;;34.80;28.40;;;;;;2148684;66;20670;-76
2022/03/25 13:58:56;;;;;;;;;;;34.70;28.90;;;;;;2142880;66;20255;-76
2022/03/25 14:01:44;;;;;;;;;;;34.70;29.00;;;;;;2135843;67;20501;-75
2022/03/25 14:04:27;;;;;;;;;;;34.60;29.50;;;;;;2138914;67;20552;-81
2022/03/25 14:07:04;;;;;;;;;;;34.40;29.60;;;;;;2143664;66;20054;-79
2022/03/25 14:09:46;;;;;;;;;;;34.10;30.00;;;;;;2137909;66;20067;-76
2022/03/25 14:12:27;;;;;;;;;;;34.00;30.20;;;;;;2133972;67;20047;-76
2022/03/25 14:15:06;;;;;;;;;;;34.00;30.40;;;;;;2136481;66;20584;-77
2022/03/25 14:17:42;;;;;;;;;;;34.10;30.20;;;;;;2136887;66;20645;-80
2022/03/25 14:20:23;;;;;;;;;;;34.10;30.10;;;;;;2149966;66;20072;-76
2022/03/25 14:23:02;;;;;;;;;;;33.90;30.20;;;;;;2167289;66;20068;-77
2022/03/25 14:25:40;;;;;;;;;;;33.80;30.50;;;;;;2180822;65;20070;-77
2022/03/25 14:28:20;;;;;;;;;;;33.70;30.30;;;;;;2227349;64;20059;-76
2022/03/25 14:31:02;;;;;;;;;;;33.30;30.00;;;;;;2227291;64;20074;-77
2022/03/25 14:33:40;;;;;;;;;;;32.80;30.10;;;;;;2248990;63;20509;-77
2022/03/25 14:36:21;;;;;;;;;;;32.40;30.20;;;;;;2252046;63;20057;-77
2022/03/25 14:39:11;;;;;;;;;;;32.00;30.40;;;;;;2253753;63;20068;-80
2022/03/25 14:41:46;;;;;;;;;;;31.60;30.40;;;;;;2254118;63;20270;-77
2022/03/25 14:44:17;;;;;;;;;;;31.40;30.90;;;;;;2247938;63;20191;-78
2022/03/25 14:46:55;;;;;;;;;;;31.30;30.40;;;;;;2254392;63;20633;-77
2022/03/25 14:49:23;;;;;;;;;;;31.30;30.70;;;;;;2252917;63;20221;-78
2022/03/25 14:51:58;;;;;;;;;;;31.20;30.20;;;;;;2246656;63;20078;-73
2022/03/25 14:54:48;;;;;;;;;;;30.20;30.80;;;;;;2243092;63;20225;-79
2022/03/25 14:57:25;;;;;;;;;;;29.70;31.60;;;;;;2242705;63;20117;-76
2022/03/25 15:00:05;;;;;;;;;;;29.30;31.70;;;;;;2239108;63;20058;-75
2022/03/25 15:02:41;;;;;;;;;;;29.00;32.40;;;;;;2246915;63;20234;-77
2022/03/25 15:05:11;;;;;;;;;;;28.90;32.90;;;;;;2246593;63;20053;-75
2022/03/25 15:07:55;;;;;;;;;;;28.40;32.50;;;;;;2219965;64;21172;-75
2022/03/25 15:10:36;;;;;;;;;;;28.00;32.90;;;;;;2221352;64;20103;-75
2022/03/25 15:13:24;;;;;;;;;;;27.50;33.10;;;;;;2187398;65;20644;-75
2022/03/25 15:16:10;;;;;;;;;;;26.80;33.60;;;;;;2179602;65;20149;-75
2022/03/25 15:18:53;;;;;;;;;;;26.50;33.80;;;;;;2187050;65;20069;-77
2022/03/25 15:21:40;;;;;;;;;;;26.20;34.20;;;;;;2176126;65;20299;-77
2022/03/25 15:24:22;;;;;;;;;;;25.90;34.20;;;;;;2162274;66;20111;-74
2022/03/25 15:27:03;;;;;;;;;;;25.50;34.40;;;;;;2154743;66;20191;-76
2022/03/25 15:35:59;;;;;;;;;;;24.00;36.00;;;;;;2135462;66;20083;-75
2022/03/25 15:38:36;;;;;;;;;;;24.00;36.70;;;;;;2142561;66;20605;-78
2022/03/25 15:41:12;;;;;;;;;;;23.30;37.70;;;;;;2147115;66;20072;-76
2022/03/25 15:44:05;;;;;;;;;;;23.20;38.00;;;;;;2141670;66;20492;-76
2022/03/25 15:46:55;;;;;;;;;;;23.20;37.60;;;;;;2157318;66;20165;-75
2022/03/25 15:49:31;;;;;;;;;;;23.20;37.70;;;;;;2160882;66;20646;-76
2022/03/25 15:52:13;;;;;;;;;;;23.40;37.60;;;;;;2166032;65;20724;-77
2022/03/25 15:54:53;;;;;;;;;;;23.40;37.70;;;;;;2180109;65;20205;-76
2022/03/25 15:57:22;;;;;;;;;;;23.40;37.80;;;;;;2199420;65;20053;-76
2022/03/25 16:00:14;;;;;;;;;;;23.30;38.30;;;;;;2196593;64;20048;-76
2022/03/25 16:02:50;;;;;;;;;;;23.30;37.90;;;;;;2232891;63;20479;-77
2022/03/25 16:05:45;;;;;;;;;;;23.50;38.00;;;;;;2214925;64;20209;-76
2022/03/25 16:08:23;;;;;;;;;;;23.90;38.10;;;;;;2213687;64;20137;-74
2022/03/25 16:11:01;;;;;;;;;;;24.00;37.00;;;;;;2211803;64;20540;-75
2022/03/25 16:13:40;;;;;;;;;;;23.90;36.70;;;;;;2209769;64;20076;-74